sensor_id;sensor_type;location;lat;lon;timestamp;pressure;altitude;pressure_sealevel;temperature;humidity
37304;BME280;23188;51.188;16.374;2022-12-18T00:03:56;101858.09;;;-1.46;86.68
37304;BME280;23188;51.188;16.374;2022-12-18T00:07:58;101873.33;;;-1.47;87.13
37304;BME280;23188;51.188;16.374;2022-12-18T00:11:59;101879.03;;;-1.57;87.77
37304;BME280;23188;51.188;16.374;2022-12-18T00:16:02;101875.08;;;-1.49;88.51
37304;BME280;23188;51.188;16.374;2022-12-18T00:20:06;101878.47;;;-1.36;88.60
37304;BME280;23188;51.188;16.374;2022-12-18T00:24:09;101878.85;;;-1.29;87.84
37304;BME280;23188;51.188;16.374;2022-12-18T00:28:10;101882.30;;;-1.21;87.09
37304;BME280;23188;51.188;16.374;2022-12-18T00:32:12;101890.22;;;-1.38;86.47
37304;BME280;23188;51.188;16.374;2022-12-18T00:36:15;101911.09;;;-1.33;86.96
37304;BME280;23188;51.188;16.374;2022-12-18T00:40:18;101916.29;;;-1.27;87.38
37304;BME280;23188;51.188;16.374;2022-12-18T00:44:19;101915.00;;;-1.32;86.94
37304;BME280;23188;51.188;16.374;2022-12-18T00:48:21;101921.48;;;-1.25;87.42
37304;BME280;23188;51.188;16.374;2022-12-18T00:52:22;101923.65;;;-1.22;86.61
37304;BME280;23188;51.188;16.374;2022-12-18T00:56:24;101930.16;;;-1.20;86.18
37304;BME280;23188;51.188;16.374;2022-12-18T01:00:25;101939.79;;;-1.27;86.47
37304;BME280;23188;51.188;16.374;2022-12-18T01:04:27;101953.30;;;-1.31;86.54
37304;BME280;23188;51.188;16.374;2022-12-18T01:08:29;101958.91;;;-1.22;86.71
37304;BME280;23188;51.188;16.374;2022-12-18T01:12:30;101950.23;;;-1.28;85.62
37304;BME280;23188;51.188;16.374;2022-12-18T01:16:31;101958.92;;;-1.26;85.66
37304;BME280;23188;51.188;16.374;2022-12-18T01:20:33;101957.19;;;-1.27;85.43
37304;BME280;23188;51.188;16.374;2022-12-18T01:24:34;101956.74;;;-1.24;85.25
37304;BME280;23188;51.188;16.374;2022-12-18T01:28:37;101955.50;;;-1.41;84.11
37304;BME280;23188;51.188;16.374;2022-12-18T01:32:38;101951.61;;;-1.44;84.01
37304;BME280;23188;51.188;16.374;2022-12-18T01:36:40;101948.59;;;-1.47;84.74
37304;BME280;23188;51.188;16.374;2022-12-18T01:40:41;101951.16;;;-1.42;84.46
37304;BME280;23188;51.188;16.374;2022-12-18T01:45:01;101961.17;;;-1.43;84.16
37304;BME280;23188;51.188;16.374;2022-12-18T01:49:05;101969.89;;;-1.44;84.54
37304;BME280;23188;51.188;16.374;2022-12-18T01:53:14;101972.11;;;-1.58;85.06
37304;BME280;23188;51.188;16.374;2022-12-18T01:57:18;101978.72;;;-1.78;85.45
37304;BME280;23188;51.188;16.374;2022-12-18T02:01:24;101991.31;;;-1.77;85.29
37304;BME280;23188;51.188;16.374;2022-12-18T02:09:53;101987.36;;;-1.62;86.39
37304;BME280;23188;51.188;16.374;2022-12-18T02:18:19;101999.13;;;-1.73;86.76
37304;BME280;23188;51.188;16.374;2022-12-18T02:22:56;101995.25;;;-1.83;86.94
37304;BME280;23188;51.188;16.374;2022-12-18T02:27:13;101998.34;;;-1.95;86.85
37304;BME280;23188;51.188;16.374;2022-12-18T02:31:18;102008.78;;;-2.03;86.37
37304;BME280;23188;51.188;16.374;2022-12-18T02:35:26;102010.53;;;-2.05;87.30
37304;BME280;23188;51.188;16.374;2022-12-18T02:39:30;101991.37;;;-1.99;87.32
37304;BME280;23188;51.188;16.374;2022-12-18T02:43:33;102010.03;;;-1.78;87.46
37304;BME280;23188;51.188;16.374;2022-12-18T02:47:37;102010.89;;;-1.80;86.27
37304;BME280;23188;51.188;16.374;2022-12-18T02:51:50;102018.70;;;-1.77;86.65
37304;BME280;23188;51.188;16.374;2022-12-18T02:56:17;102020.46;;;-1.73;86.59
37304;BME280;23188;51.188;16.374;2022-12-18T03:05:03;102003.52;;;-1.76;85.67
37304;BME280;23188;51.188;16.374;2022-12-18T03:09:32;101993.92;;;-1.77;85.05
37304;BME280;23188;51.188;16.374;2022-12-18T03:13:50;102006.95;;;-1.63;85.58
37304;BME280;23188;51.188;16.374;2022-12-18T03:17:56;102003.83;;;-1.49;85.22
37304;BME280;23188;51.188;16.374;2022-12-18T03:22:04;102006.41;;;-1.41;84.60
37304;BME280;23188;51.188;16.374;2022-12-18T03:26:09;102013.32;;;-1.29;83.00
37304;BME280;23188;51.188;16.374;2022-12-18T03:30:13;102025.55;;;-1.39;82.25
37304;BME280;23188;51.188;16.374;2022-12-18T03:34:21;102024.36;;;-1.65;82.89
37304;BME280;23188;51.188;16.374;2022-12-18T03:38:23;102028.70;;;-1.69;83.81
37304;BME280;23188;51.188;16.374;2022-12-18T03:50:56;102048.75;;;-1.87;85.02
37304;BME280;23188;51.188;16.374;2022-12-18T03:54:57;102048.75;;;-1.87;85.02
37304;BME280;23188;51.188;16.374;2022-12-18T03:59:00;102042.66;;;-1.89;85.72
37304;BME280;23188;51.188;16.374;2022-12-18T04:03:04;102046.56;;;-1.85;85.96
37304;BME280;23188;51.188;16.374;2022-12-18T04:07:07;102049.62;;;-1.83;86.11
37304;BME280;23188;51.188;16.374;2022-12-18T04:11:08;102050.91;;;-1.81;86.40
37304;BME280;23188;51.188;16.374;2022-12-18T04:15:11;102048.30;;;-1.80;85.90
37304;BME280;23188;51.188;16.374;2022-12-18T04:19:13;102064.39;;;-1.83;85.89
37304;BME280;23188;51.188;16.374;2022-12-18T04:23:14;102070.91;;;-1.83;85.77
37304;BME280;23188;51.188;16.374;2022-12-18T04:27:15;102069.61;;;-1.79;85.97
37304;BME280;23188;51.188;16.374;2022-12-18T04:31:17;102054.83;;;-1.84;85.75
37304;BME280;23188;51.188;16.374;2022-12-18T04:35:18;102065.27;;;-1.83;85.76
37304;BME280;23188;51.188;16.374;2022-12-18T04:39:19;102060.91;;;-1.87;85.75
37304;BME280;23188;51.188;16.374;2022-12-18T04:43:21;102063.54;;;-1.92;85.98
37304;BME280;23188;51.188;16.374;2022-12-18T04:47:22;102079.17;;;-1.98;86.53
37304;BME280;23188;51.188;16.374;2022-12-18T04:51:23;102073.97;;;-2.01;86.86
37304;BME280;23188;51.188;16.374;2022-12-18T04:55:25;102080.48;;;-1.98;86.19
37304;BME280;23188;51.188;16.374;2022-12-18T04:59:26;102080.94;;;-1.94;86.53
37304;BME280;23188;51.188;16.374;2022-12-18T05:03:28;102093.97;;;-1.95;85.66
37304;BME280;23188;51.188;16.374;2022-12-18T05:07:29;102090.51;;;-1.96;85.01
37304;BME280;23188;51.188;16.374;2022-12-18T05:11:31;102101.33;;;-2.41;85.11
37304;BME280;23188;51.188;16.374;2022-12-18T05:15:32;102100.91;;;-2.41;85.10
37304;BME280;23188;51.188;16.374;2022-12-18T05:19:34;102109.14;;;-2.38;85.27
37304;BME280;23188;51.188;16.374;2022-12-18T05:23:37;102110.45;;;-2.48;85.21
37304;BME280;23188;51.188;16.374;2022-12-18T05:27:38;102113.49;;;-2.47;84.85
37304;BME280;23188;51.188;16.374;2022-12-18T05:31:40;102117.40;;;-2.50;85.06
37304;BME280;23188;51.188;16.374;2022-12-18T05:35:41;102107.36;;;-2.74;85.40
37304;BME280;23188;51.188;16.374;2022-12-18T05:39:43;102133.41;;;-2.66;84.46
37304;BME280;23188;51.188;16.374;2022-12-18T05:43:44;102144.27;;;-2.66;84.91
37304;BME280;23188;51.188;16.374;2022-12-18T05:47:46;102122.94;;;-2.86;83.79
37304;BME280;23188;51.188;16.374;2022-12-18T05:51:47;102128.59;;;-2.82;83.77
37304;BME280;23188;51.188;16.374;2022-12-18T05:55:48;102148.18;;;-2.69;83.31
37304;BME280;23188;51.188;16.374;2022-12-18T05:59:49;102151.60;;;-2.80;84.00
37304;BME280;23188;51.188;16.374;2022-12-18T06:03:51;102163.33;;;-2.77;83.66
37304;BME280;23188;51.188;16.374;2022-12-18T06:07:53;102160.29;;;-2.78;83.72
37304;BME280;23188;51.188;16.374;2022-12-18T06:11:54;102169.80;;;-2.88;84.19
37304;BME280;23188;51.188;16.374;2022-12-18T06:15:55;102166.72;;;-2.96;83.95
37304;BME280;23188;51.188;16.374;2022-12-18T06:19:57;102181.01;;;-3.06;84.25
37304;BME280;23188;51.188;16.374;2022-12-18T06:23:59;102183.16;;;-3.10;84.49
37304;BME280;23188;51.188;16.374;2022-12-18T06:28:01;102184.05;;;-3.05;83.96
37304;BME280;23188;51.188;16.374;2022-12-18T06:32:02;102180.14;;;-3.05;84.36
37304;BME280;23188;51.188;16.374;2022-12-18T06:36:06;102196.23;;;-2.99;84.82
37304;BME280;23188;51.188;16.374;2022-12-18T06:40:09;102199.75;;;-2.92;84.66
37304;BME280;23188;51.188;16.374;2022-12-18T06:44:11;102205.77;;;-2.99;84.92
37304;BME280;23188;51.188;16.374;2022-12-18T06:48:12;102204.48;;;-3.01;84.16
37304;BME280;23188;51.188;16.374;2022-12-18T06:52:16;102213.95;;;-3.14;84.63
37304;BME280;23188;51.188;16.374;2022-12-18T06:56:18;102215.17;;;-3.23;85.41
37304;BME280;23188;51.188;16.374;2022-12-18T07:00:19;102213.34;;;-3.37;86.51
37304;BME280;23188;51.188;16.374;2022-12-18T07:04:21;102224.30;;;-3.20;86.59
37304;BME280;23188;51.188;16.374;2022-12-18T07:08:22;102227.73;;;-3.26;87.01
37304;BME280;23188;51.188;16.374;2022-12-18T07:12:23;102233.86;;;-3.19;87.15
37304;BME280;23188;51.188;16.374;2022-12-18T07:16:25;102231.73;;;-3.13;85.96
37304;BME280;23188;51.188;16.374;2022-12-18T07:20:26;102244.35;;;-3.05;85.91
37304;BME280;23188;51.188;16.374;2022-12-18T07:24:27;102246.94;;;-3.13;85.95
37304;BME280;23188;51.188;16.374;2022-12-18T07:28:29;102241.55;;;-3.35;86.13
37304;BME280;23188;51.188;16.374;2022-12-18T07:32:30;102245.07;;;-3.28;86.35
37304;BME280;23188;51.188;16.374;2022-12-18T07:36:32;102257.56;;;-3.40;86.35
37304;BME280;23188;51.188;16.374;2022-12-18T07:40:33;102264.55;;;-3.34;86.87
37304;BME280;23188;51.188;16.374;2022-12-18T07:44:35;102277.16;;;-3.34;86.64
37304;BME280;23188;51.188;16.374;2022-12-18T07:48:36;102281.95;;;-3.28;86.43
37304;BME280;23188;51.188;16.374;2022-12-18T07:52:37;102276.38;;;-3.20;85.64
37304;BME280;23188;51.188;16.374;2022-12-18T07:56:39;102280.67;;;-3.25;85.85
37304;BME280;23188;51.188;16.374;2022-12-18T08:00:40;102280.23;;;-3.26;85.86
37304;BME280;23188;51.188;16.374;2022-12-18T08:04:41;102277.90;;;-3.47;85.84
37304;BME280;23188;51.188;16.374;2022-12-18T08:08:43;102285.86;;;-3.27;86.17
37304;BME280;23188;51.188;16.374;2022-12-18T08:12:44;102300.30;;;-3.11;85.54
37304;BME280;23188;51.188;16.374;2022-12-18T08:16:46;102296.78;;;-3.20;85.10
37304;BME280;23188;51.188;16.374;2022-12-18T08:20:47;102294.53;;;-3.28;85.34
37304;BME280;23188;51.188;16.374;2022-12-18T08:24:48;102302.34;;;-3.30;85.11
37304;BME280;23188;51.188;16.374;2022-12-18T08:28:50;102305.29;;;-3.38;84.76
37304;BME280;23188;51.188;16.374;2022-12-18T08:32:52;102307.13;;;-3.27;84.64
37304;BME280;23188;51.188;16.374;2022-12-18T08:36:54;102305.78;;;-3.34;84.77
37304;BME280;23188;51.188;16.374;2022-12-18T08:41:00;102320.07;;;-3.35;84.76
37304;BME280;23188;51.188;16.374;2022-12-18T08:45:06;102317.40;;;-3.43;84.91
37304;BME280;23188;51.188;16.374;2022-12-18T08:49:09;102322.33;;;-3.25;84.58
37304;BME280;23188;51.188;16.374;2022-12-18T08:53:11;102322.08;;;-3.03;83.46
37304;BME280;23188;51.188;16.374;2022-12-18T08:57:13;102312.64;;;-2.87;82.00
37304;BME280;23188;51.188;16.374;2022-12-18T09:01:14;102302.27;;;-2.79;80.63
37304;BME280;23188;51.188;16.374;2022-12-18T09:05:15;102291.48;;;-2.69;80.52
37304;BME280;23188;51.188;16.374;2022-12-18T09:09:17;102283.67;;;-2.66;80.56
37304;BME280;23188;51.188;16.374;2022-12-18T09:13:18;102273.71;;;-2.59;80.04
37304;BME280;23188;51.188;16.374;2022-12-18T09:17:20;102272.89;;;-2.55;79.69
37304;BME280;23188;51.188;16.374;2022-12-18T09:21:21;102270.72;;;-2.54;80.00
37304;BME280;23188;51.188;16.374;2022-12-18T09:25:22;102269.75;;;-2.70;80.70
37304;BME280;23188;51.188;16.374;2022-12-18T09:29:23;102267.12;;;-2.76;81.09
37304;BME280;23188;51.188;16.374;2022-12-18T09:33:25;102261.93;;;-2.70;80.97
37304;BME280;23188;51.188;16.374;2022-12-18T09:37:26;102265.44;;;-2.66;80.50
37304;BME280;23188;51.188;16.374;2022-12-18T09:41:45;102261.03;;;-2.78;80.89
37304;BME280;23188;51.188;16.374;2022-12-18T09:46:03;102254.95;;;-2.76;81.20
37304;BME280;23188;51.188;16.374;2022-12-18T09:54:30;102267.52;;;-2.80;80.85
37304;BME280;23188;51.188;16.374;2022-12-18T09:58:39;102275.02;;;-2.61;80.71
37304;BME280;23188;51.188;16.374;2022-12-18T10:02:41;102272.48;;;-2.47;79.65
37304;BME280;23188;51.188;16.374;2022-12-18T10:10:57;102261.27;;;-2.24;79.00
37304;BME280;23188;51.188;16.374;2022-12-18T10:19:39;102253.94;;;-2.01;78.04
37304;BME280;23188;51.188;16.374;2022-12-18T10:24:11;102255.23;;;-2.01;76.98
37304;BME280;23188;51.188;16.374;2022-12-18T10:28:16;102248.71;;;-2.07;76.72
37304;BME280;23188;51.188;16.374;2022-12-18T10:32:25;102240.84;;;-2.17;77.65
37304;BME280;23188;51.188;16.374;2022-12-18T10:36:30;102260.00;;;-2.07;77.95
37304;BME280;23188;51.188;16.374;2022-12-18T10:40:31;102263.05;;;-2.10;77.51
37304;BME280;23188;51.188;16.374;2022-12-18T10:44:33;102268.30;;;-1.96;77.90
37304;BME280;23188;51.188;16.374;2022-12-18T10:48:56;102270.89;;;-2.01;78.12
37304;BME280;23188;51.188;16.374;2022-12-18T10:52:57;102258.69;;;-2.07;78.23
37304;BME280;23188;51.188;16.374;2022-12-18T11:01:55;102283.08;;;-1.92;78.32
37304;BME280;23188;51.188;16.374;2022-12-18T11:06:12;102283.94;;;-1.98;78.20
37304;BME280;23188;51.188;16.374;2022-12-18T11:10:18;102283.50;;;-2.02;78.80
37304;BME280;23188;51.188;16.374;2022-12-18T11:14:25;102266.12;;;-2.02;78.87
37304;BME280;23188;51.188;16.374;2022-12-18T11:18:35;102271.73;;;-2.10;78.84
37304;BME280;23188;51.188;16.374;2022-12-18T11:22:37;102269.13;;;-2.14;79.12
37304;BME280;23188;51.188;16.374;2022-12-18T11:26:39;102261.67;;;-2.31;79.60
37304;BME280;23188;51.188;16.374;2022-12-18T11:30:42;102247.33;;;-2.31;79.60
37304;BME280;23188;51.188;16.374;2022-12-18T11:34:46;102238.63;;;-2.36;79.99
37304;BME280;23188;51.188;16.374;2022-12-18T11:38:51;102248.64;;;-2.32;80.41
37304;BME280;23188;51.188;16.374;2022-12-18T11:52:16;102231.20;;;-2.52;81.63
37304;BME280;23188;51.188;16.374;2022-12-18T11:56:36;102234.63;;;-2.56;82.00
37304;BME280;23188;51.188;16.374;2022-12-18T12:18:40;102235.89;;;-2.67;82.32
37304;BME280;23188;51.188;16.374;2022-12-18T12:27:18;102242.77;;;-2.80;82.85
37304;BME280;23188;51.188;16.374;2022-12-18T12:31:43;102240.61;;;-2.79;82.72
37304;BME280;23188;51.188;16.374;2022-12-18T12:35:52;102244.08;;;-2.84;82.84
37304;BME280;23188;51.188;16.374;2022-12-18T12:40:14;102247.51;;;-2.85;82.89
37304;BME280;23188;51.188;16.374;2022-12-18T12:44:27;102232.75;;;-2.91;82.92
37304;BME280;23188;51.188;16.374;2022-12-18T12:48:46;102232.75;;;-2.91;82.92
37304;BME280;23188;51.188;16.374;2022-12-18T12:52:54;102230.08;;;-2.97;82.59
37304;BME280;23188;51.188;16.374;2022-12-18T13:14:35;102230.28;;;-3.35;84.82
37304;BME280;23188;51.188;16.374;2022-12-18T13:18:37;102236.28;;;-3.44;84.75
37304;BME280;23188;51.188;16.374;2022-12-18T13:22:42;102247.07;;;-3.51;85.07
37304;BME280;23188;51.188;16.374;2022-12-18T13:26:45;102250.91;;;-3.59;85.18
37304;BME280;23188;51.188;16.374;2022-12-18T13:30:49;102258.29;;;-3.56;85.12
37304;BME280;23188;51.188;16.374;2022-12-18T13:39:32;102258.69;;;-3.62;84.97
37304;BME280;23188;51.188;16.374;2022-12-18T13:43:43;102271.17;;;-3.70;85.26
37304;BME280;23188;51.188;16.374;2022-12-18T13:47:46;102272.86;;;-3.74;85.15
37304;BME280;23188;51.188;16.374;2022-12-18T13:51:50;102272.79;;;-3.83;84.87
37304;BME280;23188;51.188;16.374;2022-12-18T13:55:54;102275.75;;;-3.92;84.69
37304;BME280;23188;51.188;16.374;2022-12-18T13:59:56;102283.94;;;-3.95;84.92
37304;BME280;23188;51.188;16.374;2022-12-18T14:04:25;102291.23;;;-4.03;84.80
37304;BME280;23188;51.188;16.374;2022-12-18T14:08:33;102286.39;;;-4.08;84.63
37304;BME280;23188;51.188;16.374;2022-12-18T14:12:39;102287.16;;;-4.18;84.41
37304;BME280;23188;51.188;16.374;2022-12-18T14:16:59;102294.03;;;-4.22;84.29
37304;BME280;23188;51.188;16.374;2022-12-18T14:21:02;102287.88;;;-4.30;84.37
37304;BME280;23188;51.188;16.374;2022-12-18T14:25:17;102294.25;;;-4.39;84.73
37304;BME280;23188;51.188;16.374;2022-12-18T14:29:28;102303.20;;;-4.50;85.22
37304;BME280;23188;51.188;16.374;2022-12-18T14:33:30;102309.18;;;-4.57;85.21
37304;BME280;23188;51.188;16.374;2022-12-18T14:37:31;102317.75;;;-4.63;85.40
37304;BME280;23188;51.188;16.374;2022-12-18T14:41:32;102320.23;;;-4.71;85.30
37304;BME280;23188;51.188;16.374;2022-12-18T14:45:41;102317.97;;;-4.79;85.14
37304;BME280;23188;51.188;16.374;2022-12-18T14:49:44;102316.55;;;-4.87;85.17
37304;BME280;23188;51.188;16.374;2022-12-18T14:53:47;102311.61;;;-4.98;85.54
37304;BME280;23188;51.188;16.374;2022-12-18T14:58:02;102299.80;;;-5.06;86.11
37304;BME280;23188;51.188;16.374;2022-12-18T15:02:20;102305.72;;;-5.15;87.24
37304;BME280;23188;51.188;16.374;2022-12-18T15:06:30;102299.59;;;-5.20;87.56
37304;BME280;23188;51.188;16.374;2022-12-18T15:10:33;102287.43;;;-5.23;87.74
37304;BME280;23188;51.188;16.374;2022-12-18T15:14:41;102285.69;;;-5.24;87.93
37304;BME280;23188;51.188;16.374;2022-12-18T15:18:42;102288.72;;;-5.24;87.24
37304;BME280;23188;51.188;16.374;2022-12-18T15:22:45;102284.79;;;-5.26;86.00
37304;BME280;23188;51.188;16.374;2022-12-18T15:26:48;102283.81;;;-5.33;85.19
37304;BME280;23188;51.188;16.374;2022-12-18T15:39:21;102273.91;;;-5.81;85.05
37304;BME280;23188;51.188;16.374;2022-12-18T15:43:22;102280.29;;;-5.87;87.48
37304;BME280;23188;51.188;16.374;2022-12-18T15:47:37;102278.45;;;-5.93;90.11
37304;BME280;23188;51.188;16.374;2022-12-18T15:51:38;102275.86;;;-5.93;90.75
37304;BME280;23188;51.188;16.374;2022-12-18T15:55:39;102274.05;;;-5.98;90.41
37304;BME280;23188;51.188;16.374;2022-12-18T15:59:59;102255.40;;;-6.04;90.40
37304;BME280;23188;51.188;16.374;2022-12-18T16:04:00;102248.92;;;-6.04;90.78
37304;BME280;23188;51.188;16.374;2022-12-18T16:08:01;102233.69;;;-6.09;90.60
37304;BME280;23188;51.188;16.374;2022-12-18T16:12:03;102230.58;;;-6.15;91.61
37304;BME280;23188;51.188;16.374;2022-12-18T16:16:04;102230.48;;;-6.20;92.02
37304;BME280;23188;51.188;16.374;2022-12-18T16:20:06;102212.30;;;-6.23;92.40
37304;BME280;23188;51.188;16.374;2022-12-18T16:24:17;102206.53;;;-6.30;92.87
37304;BME280;23188;51.188;16.374;2022-12-18T16:28:16;102192.22;;;-6.35;93.77
37304;BME280;23188;51.188;16.374;2022-12-18T16:32:18;102202.43;;;-6.42;94.55
37304;BME280;23188;51.188;16.374;2022-12-18T16:36:20;102200.30;;;-6.40;94.82
37304;BME280;23188;51.188;16.374;2022-12-18T16:40:21;102214.03;;;-6.46;94.46
37304;BME280;23188;51.188;16.374;2022-12-18T16:44:22;102223.22;;;-6.60;94.74
37304;BME280;23188;51.188;16.374;2022-12-18T16:48:23;102219.28;;;-6.63;94.95
37304;BME280;23188;51.188;16.374;2022-12-18T16:52:24;102228.30;;;-6.65;94.95
37304;BME280;23188;51.188;16.374;2022-12-18T16:56:30;102220.52;;;-6.66;95.60
37304;BME280;23188;51.188;16.374;2022-12-18T17:00:31;102228.73;;;-6.65;96.47
37304;BME280;23188;51.188;16.374;2022-12-18T17:04:32;102230.59;;;-6.58;96.30
37304;BME280;23188;51.188;16.374;2022-12-18T17:08:33;102254.23;;;-6.63;98.05
37304;BME280;23188;51.188;16.374;2022-12-18T17:12:34;102240.21;;;-6.52;98.50
37304;BME280;23188;51.188;16.374;2022-12-18T17:16:36;102246.00;;;-6.43;98.78
37304;BME280;23188;51.188;16.374;2022-12-18T17:20:37;102240.09;;;-6.36;97.96
37304;BME280;23188;51.188;16.374;2022-12-18T17:24:39;102248.75;;;-6.36;97.13
37304;BME280;23188;51.188;16.374;2022-12-18T17:28:40;102240.89;;;-6.39;96.65
37304;BME280;23188;51.188;16.374;2022-12-18T17:32:41;102232.62;;;-6.43;96.38
37304;BME280;23188;51.188;16.374;2022-12-18T17:36:42;102234.30;;;-6.47;96.55
37304;BME280;23188;51.188;16.374;2022-12-18T17:40:43;102226.13;;;-6.44;96.23
37304;BME280;23188;51.188;16.374;2022-12-18T17:44:44;102233.30;;;-6.52;96.85
37304;BME280;23188;51.188;16.374;2022-12-18T17:48:46;102230.27;;;-6.53;96.82
37304;BME280;23188;51.188;16.374;2022-12-18T17:52:47;102228.58;;;-6.51;96.37
37304;BME280;23188;51.188;16.374;2022-12-18T17:56:48;102236.73;;;-6.53;96.39
37304;BME280;23188;51.188;16.374;2022-12-18T18:00:49;102227.60;;;-6.57;96.82
37304;BME280;23188;51.188;16.374;2022-12-18T18:04:51;102230.27;;;-6.53;96.00
37304;BME280;23188;51.188;16.374;2022-12-18T18:08:52;102220.45;;;-6.47;96.36
37304;BME280;23188;51.188;16.374;2022-12-18T18:12:54;102216.63;;;-6.44;96.66
37304;BME280;23188;51.188;16.374;2022-12-18T18:17:13;102213.18;;;-6.44;97.31
37304;BME280;23188;51.188;16.374;2022-12-18T18:21:14;102208.52;;;-6.39;97.74
37304;BME280;23188;51.188;16.374;2022-12-18T18:25:15;102212.95;;;-6.33;97.60
37304;BME280;23188;51.188;16.374;2022-12-18T18:29:18;102218.06;;;-6.38;98.22
37304;BME280;23188;51.188;16.374;2022-12-18T18:33:21;102213.25;;;-6.40;98.27
37304;BME280;23188;51.188;16.374;2022-12-18T18:37:23;102202.09;;;-6.37;97.76
37304;BME280;23188;51.188;16.374;2022-12-18T18:41:24;102198.09;;;-6.43;97.61
37304;BME280;23188;51.188;16.374;2022-12-18T18:45:26;102205.82;;;-6.45;97.45
37304;BME280;23188;51.188;16.374;2022-12-18T18:49:27;102201.43;;;-6.49;97.27
37304;BME280;23188;51.188;16.374;2022-12-18T18:53:28;102207.86;;;-6.51;97.01
37304;BME280;23188;51.188;16.374;2022-12-18T18:57:29;102203.12;;;-6.51;96.43
37304;BME280;23188;51.188;16.374;2022-12-18T19:01:30;102199.19;;;-6.53;95.76
37304;BME280;23188;51.188;16.374;2022-12-18T19:05:31;102193.45;;;-6.60;95.50
37304;BME280;23188;51.188;16.374;2022-12-18T19:09:32;102197.73;;;-6.62;95.49
37304;BME280;23188;51.188;16.374;2022-12-18T19:13:35;102203.80;;;-6.60;94.88
37304;BME280;23188;51.188;16.374;2022-12-18T19:17:36;102206.64;;;-6.68;94.29
37304;BME280;23188;51.188;16.374;2022-12-18T19:21:37;102193.12;;;-6.77;93.78
37304;BME280;23188;51.188;16.374;2022-12-18T19:25:38;102193.81;;;-6.84;93.54
37304;BME280;23188;51.188;16.374;2022-12-18T19:29:40;102201.41;;;-6.92;93.68
37304;BME280;23188;51.188;16.374;2022-12-18T19:33:41;102202.58;;;-6.98;93.25
37304;BME280;23188;51.188;16.374;2022-12-18T19:37:44;102198.02;;;-7.09;93.27
37304;BME280;23188;51.188;16.374;2022-12-18T19:41:45;102206.55;;;-7.14;92.74
37304;BME280;23188;51.188;16.374;2022-12-18T19:45:52;102199.92;;;-7.21;92.44
37304;BME280;23188;51.188;16.374;2022-12-18T19:49:51;102204.01;;;-7.31;92.08
37304;BME280;23188;51.188;16.374;2022-12-18T19:53:53;102200.41;;;-7.37;92.09
37304;BME280;23188;51.188;16.374;2022-12-18T19:57:55;102189.59;;;-7.40;91.83
37304;BME280;23188;51.188;16.374;2022-12-18T20:01:56;102192.95;;;-7.44;91.61
37304;BME280;23188;51.188;16.374;2022-12-18T20:06:12;102192.39;;;-7.48;91.42
37304;BME280;23188;51.188;16.374;2022-12-18T20:10:12;102198.45;;;-7.48;91.41
37304;BME280;23188;51.188;16.374;2022-12-18T20:14:14;102190.36;;;-7.44;91.45
37304;BME280;23188;51.188;16.374;2022-12-18T20:18:16;102195.44;;;-7.47;91.30
37304;BME280;23188;51.188;16.374;2022-12-18T20:22:17;102192.77;;;-7.52;90.87
37304;BME280;23188;51.188;16.374;2022-12-18T20:26:18;102186.70;;;-7.52;90.82
37304;BME280;23188;51.188;16.374;2022-12-18T20:30:19;102185.34;;;-7.55;90.55
37304;BME280;23188;51.188;16.374;2022-12-18T20:34:20;102188.70;;;-7.60;90.00
37304;BME280;23188;51.188;16.374;2022-12-18T20:38:23;102190.78;;;-7.62;89.81
37304;BME280;23188;51.188;16.374;2022-12-18T20:42:25;102206.17;;;-7.67;89.84
37304;BME280;23188;51.188;16.374;2022-12-18T20:46:26;102190.59;;;-7.70;90.07
37304;BME280;23188;51.188;16.374;2022-12-18T20:50:28;102181.53;;;-7.71;90.06
37304;BME280;23188;51.188;16.374;2022-12-18T21:19:35;102168.34;;;-7.82;90.49
37304;BME280;23188;51.188;16.374;2022-12-18T21:23:37;102155.25;;;-7.71;90.56
37304;BME280;23188;51.188;16.374;2022-12-18T21:27:39;102153.62;;;-7.67;90.38
37304;BME280;23188;51.188;16.374;2022-12-18T21:31:40;102136.77;;;-7.69;90.38
37304;BME280;23188;51.188;16.374;2022-12-18T21:35:42;102129.47;;;-7.68;89.99
37304;BME280;23188;51.188;16.374;2022-12-18T21:39:45;102123.45;;;-7.68;89.47
37304;BME280;23188;51.188;16.374;2022-12-18T21:43:46;102127.83;;;-7.66;89.32
37304;BME280;23188;51.188;16.374;2022-12-18T21:48:05;102132.55;;;-7.65;89.18
37304;BME280;23188;51.188;16.374;2022-12-18T21:52:06;102126.59;;;-7.63;88.65
37304;BME280;23188;51.188;16.374;2022-12-18T21:56:08;102113.51;;;-7.69;88.74
37304;BME280;23188;51.188;16.374;2022-12-18T22:00:10;102115.35;;;-7.65;88.13
37304;BME280;23188;51.188;16.374;2022-12-18T22:04:15;102109.73;;;-7.66;87.64
37304;BME280;23188;51.188;16.374;2022-12-18T22:08:17;102106.31;;;-7.65;87.35
37304;BME280;23188;51.188;16.374;2022-12-18T22:12:19;102102.33;;;-7.68;87.17
37304;BME280;23188;51.188;16.374;2022-12-18T22:16:22;102084.05;;;-7.77;87.04
37304;BME280;23188;51.188;16.374;2022-12-18T22:20:23;102071.06;;;-7.80;87.31
37304;BME280;23188;51.188;16.374;2022-12-18T22:24:25;102071.06;;;-7.80;87.52
37304;BME280;23188;51.188;16.374;2022-12-18T22:28:28;102073.19;;;-7.81;87.92
37304;BME280;23188;51.188;16.374;2022-12-18T22:32:47;102068.94;;;-7.78;87.83
37304;BME280;23188;51.188;16.374;2022-12-18T22:36:49;102060.79;;;-7.77;87.83
37304;BME280;23188;51.188;16.374;2022-12-18T22:40:50;102064.00;;;-7.68;87.59
37304;BME280;23188;51.188;16.374;2022-12-18T22:48:56;102053.23;;;-7.68;87.52
37304;BME280;23188;51.188;16.374;2022-12-18T22:52:58;102036.58;;;-7.62;87.38
37304;BME280;23188;51.188;16.374;2022-12-18T22:56:59;102028.39;;;-7.61;87.27
37304;BME280;23188;51.188;16.374;2022-12-18T23:01:01;102018.50;;;-7.60;87.19
37304;BME280;23188;51.188;16.374;2022-12-18T23:05:05;102014.78;;;-7.54;87.35
37304;BME280;23188;51.188;16.374;2022-12-18T23:13:20;102018.82;;;-7.46;86.97
37304;BME280;23188;51.188;16.374;2022-12-18T23:17:21;102008.98;;;-7.42;86.99